ロンドン/ヒースロー の空港の天気 - METARとTAF

ロンドン・ヒースロー空港 ( EGLL / LHR ) - イギリス ロンドン
飛行場実況気象(Metar)
観測時間01/18 21:20 GMT (01/18 21:20 UTC)
風向・風速西 5m/s
視程10km以上
天気現象
なし
気温5℃
湿度70%
気圧1006hPa
METAREGLL 182120Z AUTO 28009KT 9999 NCD 05/M00 Q1006 NOSIG
過去の天気等 Google飛行場航空写真 Wunderground天気予報

過去48時間のMETAR

飛行場予報(TAF)
発表時間: 1/18 16:56 GMT (1/18 16:56 UTC)
予報対象時間: 18日18時 GMT ~ 20日0時 GMT
風向・風速西 5m/s
視程10km以上
少しの雲 雲底高度 1,220m
TAF EGLL 181656Z 1818/1924 27010KT 9999 FEW040